Time;durP1;ratioP1;P1;durP2;ratioP2;P2;SDS_P1;SDS_P2;PMS_P1;PMS_P2;Temp;Humidity;BMP_temperature;BMP_pressure;BME280_temperature;BME280_humidity;BME280_pressure;Samples;Min_cycle;Max_cycle;Signal;HPM_P1;HPM_P2
2023/02/09 00:00:05;;;;;;;;;115.00;102.25;;;;;5.19;44.92;102677.66;4961660;28;45313;-68
2023/02/09 00:02:32;;;;;;;;;123.50;107.75;;;;;5.12;44.90;102660.00;4961210;28;45243;-67
2023/02/09 00:04:58;;;;;;;;;126.50;117.50;;;;;5.11;44.78;102665.16;4961301;28;45347;-67
2023/02/09 00:07:23;;;;;;;;;136.50;122.50;;;;;5.09;44.81;102672.88;4943526;28;45446;-67
2023/02/09 00:09:50;;;;;;;;;134.75;115.50;;;;;5.08;44.73;102665.00;4960108;28;45343;-68
2023/02/09 00:14:59;;;;;;;;;117.75;108.75;;;;;5.01;45.27;102664.75;4960070;28;45366;-68
2023/02/09 00:17:24;;;;;;;;;133.50;114.50;;;;;4.97;44.96;102656.75;4961014;28;45377;-68
2023/02/09 00:19:53;;;;;;;;;126.75;117.00;;;;;4.97;44.90;102660.28;4943849;28;45420;-68
2023/02/09 00:22:18;;;;;;;;;129.75;114.50;;;;;4.91;44.87;102649.59;4943473;28;45766;-68
2023/02/09 00:24:44;;;;;;;;;130.50;117.50;;;;;4.93;45.51;102657.47;4943575;28;47123;-68
2023/02/09 00:27:09;;;;;;;;;134.25;119.50;;;;;4.91;45.26;102662.63;4960813;28;45270;-68
2023/02/09 00:29:35;;;;;;;;;123.25;105.75;;;;;4.87;44.91;102656.41;4961213;28;45483;-68
2023/02/09 00:32:00;;;;;;;;;137.25;121.50;;;;;4.87;45.17;102664.22;4943441;28;45237;-68
2023/02/09 00:34:25;;;;;;;;;114.25;101.75;;;;;4.85;45.10;102660.66;4960786;28;46238;-68
2023/02/09 00:36:51;;;;;;;;;134.25;118.25;;;;;4.81;45.28;102656.16;4960789;28;45335;-68
2023/02/09 00:39:16;;;;;;;;;136.25;117.50;;;;;4.81;45.05;102658.75;4959552;28;45141;-68
2023/02/09 00:44:25;;;;;;;;;131.50;117.50;;;;;4.79;45.38;102667.34;4960568;28;45551;-68
2023/02/09 00:46:51;;;;;;;;;109.00;97.50;;;;;4.76;45.44;102660.28;4960839;28;45210;-68
2023/02/09 00:49:16;;;;;;;;;128.00;112.50;;;;;4.74;45.25;102651.50;4959590;28;45249;-68
2023/02/09 00:51:42;;;;;;;;;121.00;107.00;;;;;4.70;45.43;102647.00;4960797;28;45210;-68
2023/02/09 00:54:07;;;;;;;;;117.00;105.25;;;;;4.69;45.01;102653.03;4960260;28;45451;-68
2023/02/09 00:56:32;;;;;;;;;114.75;98.50;;;;;4.70;45.49;102649.63;4959209;28;45438;-68
2023/02/09 00:58:57;;;;;;;;;113.75;102.50;;;;;4.68;45.49;102653.91;4960760;28;45239;-68
2023/02/09 01:01:23;;;;;;;;;117.00;98.00;;;;;4.65;45.54;102648.56;4943241;28;45479;-68
2023/02/09 01:03:48;;;;;;;;;102.00;96.50;;;;;4.64;45.35;102662.41;4959178;28;47187;-68
2023/02/09 01:06:14;;;;;;;;;102.00;87.00;;;;;4.64;45.57;102662.41;4960496;28;45269;-68
2023/02/09 01:08:39;;;;;;;;;96.25;83.25;;;;;4.62;45.74;102656.25;4958799;28;45467;-68
2023/02/09 01:11:09;;;;;;;;;106.75;95.75;;;;;4.59;45.38;102656.09;4960284;28;45474;-67
2023/02/09 01:13:35;;;;;;;;;115.00;101.25;;;;;4.56;45.73;102660.34;4959054;28;47378;-67
2023/02/09 01:16:07;;;;;;;;;109.75;99.25;;;;;4.55;45.71;102655.09;4942828;28;45242;-67
2023/02/09 01:18:33;;;;;;;;;98.75;82.75;;;;;4.55;45.28;102652.50;4960382;28;45519;-67
2023/02/09 01:20:59;;;;;;;;;98.00;88.50;;;;;4.50;45.63;102660.13;4960651;28;45304;-67
2023/02/09 01:23:24;;;;;;;;;112.50;95.75;;;;;4.47;45.04;102649.56;4958702;28;46965;-68
2023/02/09 01:25:49;;;;;;;;;113.50;99.75;;;;;4.51;45.72;102656.66;4961493;28;45319;-67
2023/02/09 01:28:15;;;;;;;;;113.00;99.75;;;;;4.48;45.88;102659.16;4963569;28;45669;-68
2023/02/09 01:30:40;;;;;;;;;112.25;96.25;;;;;4.48;45.88;102659.16;4946227;28;45457;-67
2023/02/09 01:33:05;;;;;;;;;97.25;88.50;;;;;4.43;45.73;102659.78;4953726;28;47889;-67
2023/02/09 01:35:31;;;;;;;;;112.75;94.25;;;;;4.42;45.73;102665.84;4951947;28;45330;-66
2023/02/09 01:37:56;;;;;;;;;105.00;94.75;;;;;4.44;46.09;102666.78;4959751;28;45461;-67
2023/02/09 01:40:22;;;;;;;;;104.25;92.50;;;;;4.41;45.78;102671.88;4942959;28;46021;-67
2023/02/09 01:42:47;;;;;;;;;114.75;102.25;;;;;4.40;45.98;102670.97;4942110;28;47050;-67
2023/02/09 01:45:32;;;;;;;;;99.25;90.00;;;;;4.38;45.71;102670.91;4959518;28;45759;-67
2023/02/09 01:48:02;;;;;;;;;115.00;102.75;;;;;4.33;46.01;102668.94;4942218;28;45734;-68
2023/02/09 01:50:38;;;;;;;;;118.50;101.75;;;;;4.32;46.36;102665.44;4959496;28;45465;-67
2023/02/09 01:53:04;;;;;;;;;111.25;99.75;;;;;4.30;46.17;102664.50;4941857;28;47957;-68
2023/02/09 01:55:33;;;;;;;;;106.50;97.00;;;;;4.31;45.70;102673.19;4941787;28;45440;-67
2023/02/09 01:58:06;;;;;;;;;108.75;96.00;;;;;4.29;46.13;102669.63;4959425;28;45437;-68
2023/02/09 02:00:31;;;;;;;;;100.00;83.33;;;;;4.26;45.91;102675.56;4959209;28;45175;-67
2023/02/09 02:03:03;;;;;;;;;101.33;87.67;;;;;4.26;46.21;102677.31;4941600;28;47368;-68
2023/02/09 02:05:30;;;;;;;;;103.33;92.00;;;;;4.23;45.87;102681.53;4939260;28;45604;-67
2023/02/09 02:08:28;;;;;;;;;89.00;73.33;;;;;4.23;46.29;102684.16;4962051;28;45145;-67
2023/02/09 02:10:54;;;;;;;;;94.33;76.00;;;;;4.19;45.99;102670.97;4937693;28;46134;-68
2023/02/09 02:13:20;;;;;;;;;99.00;87.33;;;;;4.19;45.98;102682.25;4960933;28;46923;-67
2023/02/09 02:16:07;;;;;;;;;96.00;79.33;;;;;4.18;46.06;102676.97;4947097;28;45608;-67
2023/02/09 02:18:41;;;;;;;;;95.33;80.67;;;;;4.16;46.20;102676.88;4965896;28;45568;-67
2023/02/09 02:21:44;;;;;;;;;99.33;86.67;;;;;4.13;46.07;102676.78;4963097;28;45312;-68
2023/02/09 02:24:45;;;;;;;;;99.33;85.67;;;;;4.09;46.09;102671.34;4961110;28;45458;-68
2023/02/09 02:27:31;;;;;;;;;98.67;85.33;;;;;4.08;46.41;102678.28;4932518;28;45619;-68
2023/02/09 02:30:21;;;;;;;;;109.75;103.25;;;;;4.07;46.04;102684.31;4961536;28;45445;-68
2023/02/09 02:33:05;;;;;;;;;98.00;83.25;;;;;4.05;46.50;102685.94;4962963;28;45411;-67
2023/02/09 02:35:56;;;;;;;;;106.00;92.75;;;;;4.03;46.43;102685.00;4961297;28;47181;-67
2023/02/09 02:38:41;;;;;;;;;107.75;95.00;;;;;4.01;46.23;102682.34;4961770;28;45358;-67
2023/02/09 02:41:09;;;;;;;;;117.25;97.25;;;;;3.99;46.21;102676.19;4962715;28;45231;-68
2023/02/09 02:43:46;;;;;;;;;106.50;97.25;;;;;3.98;46.23;102681.31;4971321;28;45409;-67
2023/02/09 02:46:25;;;;;;;;;105.00;97.00;;;;;3.94;46.44;102676.78;4964991;28;46700;-68
2023/02/09 02:48:56;;;;;;;;;101.50;88.25;;;;;3.93;46.10;102667.22;4945084;28;45294;-68
2023/02/09 02:51:43;;;;;;;;;110.50;95.25;;;;;3.92;46.37;102674.13;4962363;28;45353;-68
2023/02/09 02:54:15;;;;;;;;;102.33;85.33;;;;;3.86;46.32;102669.56;4961916;28;45449;-68
2023/02/09 02:56:52;;;;;;;;;106.00;93.00;;;;;3.84;46.15;102665.97;4960730;28;46955;-68
2023/02/09 02:59:29;;;;;;;;;97.67;83.33;;;;;3.85;46.47;102672.97;4962171;28;45556;-68
2023/02/09 03:02:00;;;;;;;;;97.67;85.67;;;;;3.84;46.69;102678.09;4962562;28;45240;-68
2023/02/09 03:04:28;;;;;;;;;109.50;92.50;;;;;3.81;46.51;102675.34;4962224;28;45255;-68
2023/02/09 03:06:53;;;;;;;;;107.75;94.25;;;;;3.79;46.51;102674.41;4961732;28;46182;-68
2023/02/09 03:09:18;;;;;;;;;114.75;98.75;;;;;3.76;46.23;102674.25;4960839;28;45256;-68
2023/02/09 03:11:50;;;;;;;;;119.00;102.00;;;;;3.75;46.48;102662.97;4962212;28;45276;-67
2023/02/09 03:14:21;;;;;;;;;113.25;100.25;;;;;3.76;46.68;102671.66;4962020;28;45302;-68
2023/02/09 03:17:02;;;;;;;;;111.75;93.50;;;;;3.69;46.61;102675.72;4961891;28;46855;-67
2023/02/09 03:20:09;;;;;;;;;95.33;85.00;;;;;3.69;46.60;102673.97;4944672;28;45484;-68
2023/02/09 03:22:45;;;;;;;;;103.75;89.25;;;;;3.64;47.00;102670.28;4961946;28;45376;-68
2023/02/09 03:25:32;;;;;;;;;103.67;83.67;;;;;3.62;46.91;102671.91;4961823;28;45405;-67
2023/02/09 03:28:06;;;;;;;;;104.00;90.33;;;;;3.56;46.50;102669.94;4944174;28;47035;-68
2023/02/09 03:30:34;;;;;;;;;98.67;84.33;;;;;3.55;46.67;102675.97;4960516;28;45168;-68
2023/02/09 03:33:03;;;;;;;;;96.00;81.67;;;;;3.52;47.10;102661.94;4960513;28;45438;-68
2023/02/09 03:35:40;;;;;;;;;99.00;90.00;;;;;3.51;47.04;102661.06;4961784;28;45297;-68
2023/02/09 03:38:06;;;;;;;;;102.33;87.00;;;;;3.49;46.76;102670.47;4961296;28;45220;-68
2023/02/09 03:40:32;;;;;;;;;99.00;84.33;;;;;3.46;47.02;102664.25;4961800;28;45285;-68
2023/02/09 03:42:58;;;;;;;;;105.75;95.25;;;;;3.44;46.89;102668.50;4959898;28;45261;-68
2023/02/09 03:45:24;;;;;;;;;101.33;91.33;;;;;3.41;47.18;102670.13;4961581;28;45567;-68
2023/02/09 03:47:50;;;;;;;;;99.00;83.33;;;;;3.42;46.68;102666.72;4961318;28;45314;-68
2023/02/09 03:50:15;;;;;;;;;109.25;93.50;;;;;3.39;46.88;102656.16;4959071;28;45442;-68
2023/02/09 03:52:41;;;;;;;;;101.25;89.25;;;;;3.37;46.96;102664.72;4961397;28;45402;-67
2023/02/09 03:55:06;;;;;;;;;104.50;93.50;;;;;3.35;47.00;102663.78;4961417;28;45291;-68
2023/02/09 03:57:31;;;;;;;;;104.67;88.00;;;;;3.35;46.47;102667.25;4961153;28;45356;-67
2023/02/09 03:59:57;;;;;;;;;100.00;86.00;;;;;3.34;46.68;102664.59;4960035;28;45308;-67
2023/02/09 04:02:22;;;;;;;;;101.67;86.33;;;;;3.31;46.86;102656.63;4961478;28;45263;-67
2023/02/09 04:04:47;;;;;;;;;103.00;90.67;;;;;3.34;46.88;102656.78;4943860;28;45556;-67
2023/02/09 04:07:13;;;;;;;;;104.75;90.75;;;;;3.29;47.09;102656.56;4960903;28;46391;-68
2023/02/09 04:09:38;;;;;;;;;102.33;89.67;;;;;3.31;46.68;102662.72;4959905;28;45318;-69
2023/02/09 04:12:04;;;;;;;;;108.67;92.00;;;;;3.25;46.92;102655.53;4961245;28;45657;-69
2023/02/09 04:14:29;;;;;;;;;94.33;71.33;;;;;3.24;47.21;102658.94;4961165;28;45196;-69
2023/02/09 04:16:55;;;;;;;;;95.67;82.67;;;;;3.29;47.41;102668.69;4943477;28;48145;-68
2023/02/09 04:19:20;;;;;;;;;100.33;82.67;;;;;3.26;47.06;102672.03;4943774;28;45231;-69
2023/02/09 04:21:45;;;;;;;;;108.33;93.33;;;;;3.27;46.97;102680.69;4961049;28;45287;-69
2023/02/09 04:24:11;;;;;;;;;97.67;83.67;;;;;3.23;46.99;102672.78;4959666;28;45268;-69
2023/02/09 04:26:37;;;;;;;;;98.00;79.00;;;;;3.24;46.99;102678.84;4943188;28;47147;-69
2023/02/09 04:29:03;;;;;;;;;97.67;82.67;;;;;3.12;46.96;102660.06;4943933;28;45320;-68
2023/02/09 04:31:29;;;;;;;;;95.67;81.67;;;;;3.22;47.04;102683.97;4943638;28;45409;-68
2023/02/09 04:33:54;;;;;;;;;95.00;84.00;;;;;3.16;47.46;102675.88;4943356;28;45349;-68
2023/02/09 04:36:22;;;;;;;;;95.00;84.00;;;;;3.18;47.26;102691.53;4943315;28;47337;-68
2023/02/09 04:38:47;;;;;;;;;98.00;76.67;;;;;3.11;47.09;102689.47;4959294;28;45352;-68
2023/02/09 04:41:13;;;;;;;;;97.33;85.33;;;;;3.15;46.96;102691.41;4960890;28;45315;-68
2023/02/09 04:43:38;;;;;;;;;96.00;80.67;;;;;3.14;47.00;102687.91;4960788;28;45459;-68
2023/02/09 04:46:03;;;;;;;;;100.67;85.67;;;;;3.12;47.23;102688.66;4960455;28;45268;-68
2023/02/09 04:48:30;;;;;;;;;102.67;89.00;;;;;3.07;46.89;102683.25;4960812;28;45212;-68
2023/02/09 04:50:56;;;;;;;;;102.00;85.00;;;;;3.08;47.17;102692.81;4960858;28;45292;-68
2023/02/09 04:53:22;;;;;;;;;98.00;82.33;;;;;3.04;47.50;102681.38;4943226;28;45259;-69
2023/02/09 04:55:49;;;;;;;;;97.67;84.00;;;;;3.00;47.63;102670.78;4960554;28;45264;-68
2023/02/09 05:01:01;;;;;;;;;96.67;86.33;;;;;2.98;47.22;102670.72;4962167;28;45520;-69
2023/02/09 05:03:27;;;;;;;;;99.67;87.00;;;;;2.91;47.27;102653.94;4946766;28;45417;-68
2023/02/09 05:05:57;;;;;;;;;99.67;85.67;;;;;2.93;47.83;102659.19;4943216;28;46806;-68
2023/02/09 05:08:23;;;;;;;;;95.33;79.00;;;;;2.89;47.91;102654.69;4957328;28;45446;-68
2023/02/09 05:10:53;;;;;;;;;94.67;80.33;;;;;2.89;47.49;102657.28;4943273;28;45829;-68
2023/02/09 05:13:21;;;;;;;;;98.00;81.67;;;;;2.87;47.34;102657.22;4960342;28;45584;-68
2023/02/09 05:15:46;;;;;;;;;103.33;85.67;;;;;2.87;47.79;102651.13;4960189;28;46687;-68
2023/02/09 05:18:13;;;;;;;;;114.75;97.75;;;;;2.87;47.86;102657.22;4959845;28;45337;-68
2023/02/09 05:20:38;;;;;;;;;93.00;77.33;;;;;2.88;47.41;102659.00;4960033;28;45509;-68
2023/02/09 05:23:04;;;;;;;;;99.00;84.00;;;;;2.85;47.48;102652.75;4942133;28;45513;-68
2023/02/09 05:25:30;;;;;;;;;94.33;80.33;;;;;2.83;47.84;102651.78;4942201;28;46953;-68
2023/02/09 05:27:55;;;;;;;;;91.33;77.33;;;;;2.81;47.69;102645.66;4959387;28;45314;-68
2023/02/09 05:30:21;;;;;;;;;91.00;68.67;;;;;2.76;47.81;102633.31;4960211;28;45972;-68
2023/02/09 05:32:46;;;;;;;;;83.67;64.00;;;;;2.75;47.46;102646.22;4942625;28;45478;-68
2023/02/09 05:35:12;;;;;;;;;73.33;57.00;;;;;2.73;47.34;102668.63;4939980;28;47121;-68
2023/02/09 05:37:37;;;;;;;;;75.33;58.33;;;;;2.75;47.91;102699.06;4960923;28;45471;-68
2023/02/09 05:40:03;;;;;;;;;80.33;58.33;;;;;2.68;47.43;102702.16;4962690;28;45227;-68
2023/02/09 05:42:28;;;;;;;;;82.33;65.00;;;;;2.70;47.50;102715.22;4962349;28;45473;-69
2023/02/09 05:44:54;;;;;;;;;86.00;66.00;;;;;2.62;47.47;102721.72;4945198;28;48195;-68
2023/02/09 05:47:21;;;;;;;;;81.33;62.33;;;;;2.64;47.69;102736.59;4962227;28;45652;-68
2023/02/09 05:49:47;;;;;;;;;80.33;62.00;;;;;2.60;47.56;102738.13;4961585;28;45269;-69
2023/02/09 05:52:13;;;;;;;;;95.00;71.67;;;;;2.56;47.99;102728.38;4963070;28;45258;-68
2023/02/09 05:54:38;;;;;;;;;79.00;61.33;;;;;2.56;47.71;102738.75;4963081;28;46266;-68
2023/02/09 05:57:04;;;;;;;;;81.00;64.00;;;;;2.55;47.86;102742.19;4962954;28;45286;-69
2023/02/09 05:59:30;;;;;;;;;89.00;67.00;;;;;2.52;47.72;102734.25;4963153;28;45302;-68
2023/02/09 06:01:55;;;;;;;;;76.00;55.67;;;;;2.49;48.09;102730.59;4945736;28;45402;-68
2023/02/09 06:04:21;;;;;;;;;83.67;64.33;;;;;2.46;47.55;102731.34;4962863;28;45402;-68
2023/02/09 06:06:46;;;;;;;;;87.33;63.67;;;;;2.43;47.96;102736.38;4961384;28;45340;-68
2023/02/09 06:09:12;;;;;;;;;83.67;64.00;;;;;2.43;47.67;102733.78;4945633;28;45328;-68
2023/02/09 06:11:37;;;;;;;;;78.67;63.00;;;;;2.44;47.57;102727.78;4961081;28;45563;-68
2023/02/09 06:14:02;;;;;;;;;87.00;69.00;;;;;2.37;47.97;102718.78;4962158;28;45366;-68
2023/02/09 06:16:28;;;;;;;;;90.00;68.33;;;;;2.33;48.17;102722.03;4942173;28;45937;-68
2023/02/09 06:18:53;;;;;;;;;82.33;64.67;;;;;2.37;48.12;102725.69;4961639;28;45233;-68
2023/02/09 06:21:19;;;;;;;;;85.67;64.67;;;;;2.42;47.56;102732.00;4962769;28;45315;-68
2023/02/09 06:23:44;;;;;;;;;81.00;64.67;;;;;2.40;47.84;102724.13;4962757;28;45156;-68
2023/02/09 06:26:12;;;;;;;;;84.33;65.00;;;;;2.40;47.74;102731.91;4962355;28;45234;-69
2023/02/09 06:28:38;;;;;;;;;83.00;63.67;;;;;2.41;47.85;102731.09;4962558;28;45309;-68
2023/02/09 06:31:04;;;;;;;;;79.33;59.33;;;;;2.41;47.99;102727.59;4962793;28;45227;-69
2023/02/09 06:33:31;;;;;;;;;73.33;59.00;;;;;2.40;47.86;102718.03;4944910;28;47762;-69
2023/02/09 06:35:56;;;;;;;;;81.67;60.00;;;;;2.37;48.17;102723.97;4947973;28;45248;-65
2023/02/09 06:38:22;;;;;;;;;81.33;60.67;;;;;2.37;47.97;102723.09;4956540;28;45469;-71
2023/02/09 06:40:47;;;;;;;;;79.67;62.33;;;;;2.37;48.16;102736.94;4962307;28;45254;-74
2023/02/09 06:43:13;;;;;;;;;81.67;64.00;;;;;2.39;48.23;102734.41;4957110;28;45461;-74
2023/02/09 06:45:40;;;;;;;;;80.33;62.00;;;;;2.39;47.74;102729.22;4944249;28;45432;-73
2023/02/09 06:48:06;;;;;;;;;79.67;62.00;;;;;2.41;48.11;102738.00;4975373;28;45250;-69
2023/02/09 06:50:32;;;;;;;;;76.33;60.33;;;;;2.48;48.22;102744.38;4962163;28;45279;-72
2023/02/09 06:52:58;;;;;;;;;83.67;64.00;;;;;2.51;48.21;102754.94;4951989;28;46387;-72
2023/02/09 06:55:23;;;;;;;;;83.33;64.67;;;;;2.54;47.89;102758.59;4962124;28;46569;-72
2023/02/09 06:57:49;;;;;;;;;73.67;57.67;;;;;2.54;47.71;102757.66;4957836;28;45938;-69
2023/02/09 07:00:15;;;;;;;;;81.33;62.00;;;;;2.56;47.73;102754.34;4961994;28;45299;-66
2023/02/09 07:02:44;;;;;;;;;79.67;62.67;;;;;2.62;47.75;102758.97;4961758;28;45718;-69
2023/02/09 07:05:13;;;;;;;;;80.33;63.00;;;;;2.63;47.87;102757.25;4961461;28;45295;-68
2023/02/09 07:07:39;;;;;;;;;84.33;66.33;;;;;2.57;47.97;102748.34;4961661;28;45322;-67
2023/02/09 07:10:07;;;;;;;;;84.00;65.67;;;;;2.65;47.73;102766.03;4951079;28;45358;-63
2023/02/09 07:12:32;;;;;;;;;82.33;60.67;;;;;2.64;47.71;102757.34;4961545;28;46340;-63
2023/02/09 07:14:58;;;;;;;;;74.33;58.67;;;;;2.66;47.82;102775.59;4961515;28;45388;-64
2023/02/09 07:17:23;;;;;;;;;79.67;60.00;;;;;2.66;47.58;102770.41;4955384;28;45445;-63
2023/02/09 07:19:48;;;;;;;;;85.67;65.00;;;;;2.65;47.80;102766.91;4943959;28;45573;-63
2023/02/09 07:22:14;;;;;;;;;76.00;58.33;;;;;2.64;48.21;102775.53;4943805;28;47351;-64
2023/02/09 07:24:40;;;;;;;;;80.67;63.00;;;;;2.62;48.20;102771.03;4960419;28;45743;-64
2023/02/09 07:27:06;;;;;;;;;83.67;63.00;;;;;2.62;48.08;102778.81;4960118;28;45250;-64
2023/02/09 07:29:32;;;;;;;;;86.00;66.00;;;;;2.54;48.49;102775.84;4960062;28;45690;-64
2023/02/09 07:31:58;;;;;;;;;78.67;61.33;;;;;2.57;48.30;102771.72;4959942;28;46780;-64
2023/02/09 07:34:24;;;;;;;;;81.33;61.67;;;;;2.56;47.98;102769.03;4946818;28;45519;-65
2023/02/09 07:36:49;;;;;;;;;72.33;57.33;;;;;2.50;47.91;102769.59;4960961;28;45321;-65
2023/02/09 07:39:15;;;;;;;;;77.67;62.00;;;;;2.54;47.82;102781.94;4960690;28;45612;-64
2023/02/09 07:41:40;;;;;;;;;82.00;63.00;;;;;2.50;48.37;102779.09;4948325;28;47451;-65
2023/02/09 07:44:08;;;;;;;;;82.00;59.67;;;;;2.45;48.14;102776.25;4953847;28;45315;-64
2023/02/09 07:46:33;;;;;;;;;82.00;63.00;;;;;2.51;48.01;102788.69;4961137;28;45469;-65
2023/02/09 07:48:59;;;;;;;;;80.00;63.00;;;;;2.49;48.43;102788.59;4961071;28;45391;-64
2023/02/09 07:51:25;;;;;;;;;89.33;67.00;;;;;2.43;48.08;102788.28;4960737;28;46138;-64
2023/02/09 07:53:52;;;;;;;;;85.33;64.33;;;;;2.48;47.77;102786.81;4959478;28;45556;-63
2023/02/09 07:56:17;;;;;;;;;82.67;63.67;;;;;2.46;48.14;102782.34;4960856;28;45436;-63
2023/02/09 07:58:43;;;;;;;;;85.33;64.00;;;;;2.46;48.03;102792.75;4959963;28;45402;-63
2023/02/09 08:01:10;;;;;;;;;84.33;65.67;;;;;2.50;48.39;102805.94;4959351;28;46081;-65
2023/02/09 08:03:37;;;;;;;;;85.33;66.00;;;;;2.49;48.02;102799.00;4960901;28;45545;-65
2023/02/09 08:06:11;;;;;;;;;82.67;65.67;;;;;2.46;48.29;102814.38;4960737;28;45490;-65
2023/02/09 08:08:36;;;;;;;;;86.00;66.33;;;;;2.50;48.46;102831.88;4959292;28;45419;-66
2023/02/09 08:11:03;;;;;;;;;83.33;62.67;;;;;2.53;48.42;102845.06;4959285;28;47400;-65
2023/02/09 08:13:32;;;;;;;;;88.33;67.67;;;;;2.48;48.32;102835.22;4943440;28;45342;-64
2023/02/09 08:16:03;;;;;;;;;78.33;61.33;;;;;2.52;48.38;102838.06;4957454;28;45446;-65
2023/02/09 08:18:47;;;;;;;;;85.00;66.00;;;;;2.54;48.49;102843.34;4960921;28;45411;-65
2023/02/09 08:21:15;;;;;;;;;89.67;67.00;;;;;2.56;48.28;102849.50;4960639;28;45681;-66
2023/02/09 08:23:42;;;;;;;;;83.67;66.00;;;;;2.54;48.42;102848.53;4960370;28;45485;-65
2023/02/09 08:26:10;;;;;;;;;90.00;67.67;;;;;2.56;48.68;102852.97;4960699;28;45446;-63
2023/02/09 08:28:37;;;;;;;;;87.33;67.00;;;;;2.57;48.29;102859.97;4960587;28;45333;-63
2023/02/09 08:31:03;;;;;;;;;89.33;66.33;;;;;2.58;48.39;102851.38;4960750;28;46023;-65
2023/02/09 08:33:28;;;;;;;;;85.00;65.33;;;;;2.67;48.65;102858.75;4960437;28;45272;-65
2023/02/09 08:35:54;;;;;;;;;83.33;65.00;;;;;2.61;48.80;102853.25;4970529;28;45606;-66
2023/02/09 08:38:19;;;;;;;;;85.33;69.67;;;;;2.72;48.75;102866.78;4966702;28;45493;-65
2023/02/09 08:40:45;;;;;;;;;84.67;66.00;;;;;2.78;48.62;102874.91;4967177;28;46116;-66
2023/02/09 08:43:12;;;;;;;;;85.67;66.67;;;;;2.81;48.64;102882.84;4962599;28;45197;-65
2023/02/09 08:45:39;;;;;;;;;95.33;70.33;;;;;2.85;48.96;102886.50;4967115;28;45354;-66
2023/02/09 08:48:05;;;;;;;;;99.00;83.00;;;;;2.89;48.90;102889.34;4949239;28;45537;-63
2023/02/09 08:50:32;;;;;;;;;90.33;74.67;;;;;2.96;48.55;102887.06;4967043;28;45646;-63
2023/02/09 08:52:58;;;;;;;;;88.00;67.33;;;;;2.96;48.43;102874.06;4966525;28;45364;-63
2023/02/09 08:55:24;;;;;;;;;85.00;66.33;;;;;3.05;48.61;102887.53;4967346;28;45427;-66
2023/02/09 08:57:49;;;;;;;;;94.00;76.33;;;;;3.10;49.06;102888.66;4966636;28;45541;-66
2023/02/09 09:00:15;;;;;;;;;85.33;65.67;;;;;3.13;48.56;102891.38;4967081;28;45267;-64
2023/02/09 09:02:40;;;;;;;;;90.00;67.67;;;;;3.22;48.60;102894.47;4966765;28;45378;-66
2023/02/09 09:05:06;;;;;;;;;91.00;71.67;;;;;3.31;48.71;102890.53;4966879;28;45493;-65
2023/02/09 09:07:31;;;;;;;;;90.00;72.00;;;;;3.37;49.13;102891.75;4966495;28;45165;-65
2023/02/09 09:09:57;;;;;;;;;97.00;74.33;;;;;3.41;48.72;102893.69;4971684;28;45339;-64
2023/02/09 09:12:22;;;;;;;;;92.67;74.00;;;;;3.48;49.31;102896.59;4966334;28;45378;-65
2023/02/09 09:14:48;;;;;;;;;90.00;69.33;;;;;3.57;49.27;102903.13;4949320;28;45516;-65
2023/02/09 09:17:13;;;;;;;;;89.33;69.00;;;;;3.68;49.17;102907.97;4964294;28;45255;-65
2023/02/09 09:19:38;;;;;;;;;90.00;67.33;;;;;3.78;48.81;102909.31;4966498;28;45223;-65
2023/02/09 09:22:04;;;;;;;;;89.67;70.67;;;;;3.85;48.75;102900.97;4966348;28;45491;-65
2023/02/09 09:24:30;;;;;;;;;89.67;74.00;;;;;3.97;48.98;102918.88;4965546;28;45284;-65
2023/02/09 09:26:56;;;;;;;;;89.67;72.67;;;;;4.05;48.75;102910.63;4966296;28;45321;-64
2023/02/09 09:29:22;;;;;;;;;85.33;64.00;;;;;4.13;49.30;102905.78;4962119;28;46507;-65
2023/02/09 09:31:47;;;;;;;;;88.00;73.33;;;;;4.26;49.09;102901.16;4964612;28;45341;-65
2023/02/09 09:34:12;;;;;;;;;86.67;69.00;;;;;4.40;49.51;102910.47;4965189;28;45316;-65
2023/02/09 09:36:38;;;;;;;;;94.00;79.00;;;;;4.53;49.15;102918.03;4966053;28;45425;-65
2023/02/09 09:39:03;;;;;;;;;91.33;74.00;;;;;4.65;49.17;102917.69;4949021;28;46985;-65
2023/02/09 09:41:33;;;;;;;;;91.67;79.00;;;;;4.80;49.46;102916.63;4966194;28;45310;-65
2023/02/09 09:44:01;;;;;;;;;96.67;82.67;;;;;4.98;49.50;102929.56;4962366;28;45240;-65
2023/02/09 09:46:35;;;;;;;;;91.33;78.00;;;;;5.10;49.25;102911.84;4965340;28;45310;-65
2023/02/09 09:49:02;;;;;;;;;86.67;70.00;;;;;5.27;49.54;102914.28;4963000;28;45444;-65
2023/02/09 09:51:42;;;;;;;;;86.67;69.67;;;;;5.40;49.58;102916.59;4962813;28;45401;-65
2023/02/09 09:54:20;;;;;;;;;89.33;79.33;;;;;5.53;49.44;102908.47;4963242;28;45300;-65
2023/02/09 09:56:46;;;;;;;;;90.67;80.33;;;;;5.68;49.83;102909.91;4963047;28;45351;-65
2023/02/09 09:59:19;;;;;;;;;90.33;76.67;;;;;5.84;49.60;102908.81;4945387;28;45470;-65
2023/02/09 10:01:45;;;;;;;;;87.33;72.00;;;;;6.00;49.58;102910.34;4963041;28;45409;-65
2023/02/09 10:04:13;;;;;;;;;87.67;72.00;;;;;6.16;49.88;102911.81;4962681;28;45499;-65
2023/02/09 10:06:42;;;;;;;;;87.00;74.67;;;;;6.32;49.66;102901.13;4962744;28;45280;-65
2023/02/09 10:09:24;;;;;;;;;85.67;73.00;;;;;6.52;49.90;102907.97;4962636;28;45437;-65
2023/02/09 10:11:59;;;;;;;;;89.00;75.67;;;;;6.67;49.77;102904.16;4962644;28;45287;-65
2023/02/09 10:14:24;;;;;;;;;88.33;78.67;;;;;6.84;49.70;102901.28;4945291;28;45518;-65
2023/02/09 10:16:50;;;;;;;;;88.67;71.33;;;;;6.95;49.52;102879.00;4959782;28;45400;-65
2023/02/09 10:19:20;;;;;;;;;84.00;68.67;;;;;7.15;49.79;102892.78;4944910;28;47180;-65
2023/02/09 10:21:45;;;;;;;;;84.33;67.00;;;;;7.30;49.81;102902.00;4961212;28;45317;-65
2023/02/09 10:24:19;;;;;;;;;87.33;74.33;;;;;7.46;49.54;102904.28;4962591;28;45410;-65
2023/02/09 10:27:01;;;;;;;;;78.67;61.67;;;;;7.67;50.11;102900.59;4962491;28;45505;-65
2023/02/09 10:29:27;;;;;;;;;76.33;59.00;;;;;7.86;49.83;102903.81;4962410;28;47330;-65
2023/02/09 10:32:18;;;;;;;;;81.00;62.67;;;;;8.08;49.90;102892.28;4944886;28;46004;-65
2023/02/09 10:34:50;;;;;;;;;72.33;56.00;;;;;8.28;49.75;102890.25;4953774;28;45551;-65
2023/02/09 10:37:19;;;;;;;;;70.33;56.00;;;;;8.43;49.72;102885.47;4962023;28;45331;-65
2023/02/09 10:39:53;;;;;;;;;78.00;60.67;;;;;8.64;49.82;102892.22;4957346;28;47096;-66
2023/02/09 10:42:25;;;;;;;;;82.33;65.00;;;;;8.81;49.83;102907.53;4953135;28;45571;-65
2023/02/09 10:44:55;;;;;;;;;79.00;60.33;;;;;8.96;49.68;102900.06;4961222;28;45490;-66
2023/02/09 10:47:23;;;;;;;;;81.00;66.67;;;;;9.16;49.64;102915.47;4962449;28;45641;-66
2023/02/09 10:50:15;;;;;;;;;78.67;64.67;;;;;9.32;49.61;102903.59;4957460;28;46197;-66
2023/02/09 10:52:54;;;;;;;;;75.67;59.00;;;;;9.48;49.83;102892.63;4961854;28;45292;-66
2023/02/09 10:55:25;;;;;;;;;81.00;65.33;;;;;9.66;49.76;102889.59;4962261;28;45548;-65
2023/02/09 10:58:02;;;;;;;;;77.00;59.33;;;;;9.80;49.65;102882.03;4960711;28;45645;-66
2023/02/09 11:00:33;;;;;;;;;74.00;58.00;;;;;9.96;49.36;102891.16;4962071;28;46389;-65
2023/02/09 11:03:00;;;;;;;;;75.67;57.33;;;;;10.02;49.53;102874.63;4960382;28;45493;-65
2023/02/09 11:05:32;;;;;;;;;73.00;57.33;;;;;10.21;49.62;102881.16;4960361;28;45358;-65
2023/02/09 11:08:02;;;;;;;;;74.00;57.00;;;;;10.36;49.48;102883.28;4958698;28;45484;-67
2023/02/09 11:10:30;;;;;;;;;66.25;52.75;;;;;10.44;49.39;102886.06;4947387;28;47496;-66
2023/02/09 11:12:58;;;;;;;;;61.50;49.25;;;;;10.57;49.42;102891.59;4947061;28;45538;-68
2023/02/09 11:15:36;;;;;;;;;67.00;54.00;;;;;10.67;49.32;102883.91;4959611;28;45522;-66
2023/02/09 11:18:12;;;;;;;;;65.25;52.25;;;;;10.78;49.37;102884.09;4960306;28;45535;-68
2023/02/09 11:20:53;;;;;;;;;65.75;51.00;;;;;10.87;49.16;102879.03;4959751;28;46324;-66
2023/02/09 11:23:48;;;;;;;;;59.50;46.75;;;;;10.93;49.19;102860.72;4959342;28;45416;-68
2023/02/09 11:26:26;;;;;;;;;60.75;49.00;;;;;10.99;49.02;102868.75;4958647;28;45365;-63
2023/02/09 11:29:13;;;;;;;;;64.50;50.75;;;;;11.06;49.00;102875.84;4958405;28;45666;-71